Time;durP1;ratioP1;P1;durP2;ratioP2;P2;SDS_P1;SDS_P2;PMS_P1;PMS_P2;Temp;Humidity;BMP_temperature;BMP_pressure;BME280_temperature;BME280_humidity;BME280_pressure;Samples;Min_cycle;Max_cycle;Signal;HPM_P1;HPM_P2
2022/12/01 00:03:03;;;;;;;50.60;17.30;;;;;;;;;;10411256;28;20237;-79
2022/12/01 00:08:04;;;;;;;56.75;18.73;;;;;;;;;;10411846;28;20219;-79
2022/12/01 00:13:05;;;;;;;58.70;18.20;;;;;;;;;;10410338;28;20218;-79
2022/12/01 00:18:07;;;;;;;60.38;18.08;;;;;;;;;;10408573;28;20230;-79
2022/12/01 00:23:08;;;;;;;42.33;16.40;;;;;;;;;;10416244;28;20223;-79
2022/12/01 00:28:09;;;;;;;63.92;17.58;;;;;;;;;;10425628;28;20227;-79
2022/12/01 00:33:10;;;;;;;64.88;19.55;;;;;;;;;;10398920;28;20243;-79
2022/12/01 00:38:11;;;;;;;65.43;19.55;;;;;;;;;;10409690;28;20223;-79
2022/12/01 00:43:12;;;;;;;50.33;18.27;;;;;;;;;;10401303;28;20622;-79
2022/12/01 00:48:13;;;;;;;55.17;17.95;;;;;;;;;;10410078;28;20245;-80
2022/12/01 00:53:14;;;;;;;47.53;15.68;;;;;;;;;;10406887;28;20854;-80
2022/12/01 00:58:15;;;;;;;50.13;15.73;;;;;;;;;;10382872;28;20231;-79
2022/12/01 01:03:16;;;;;;;53.35;17.00;;;;;;;;;;10419213;28;20207;-79
2022/12/01 01:08:17;;;;;;;52.00;15.80;;;;;;;;;;10397567;28;20218;-79
2022/12/01 01:13:18;;;;;;;36.03;14.60;;;;;;;;;;10411241;28;20212;-79
2022/12/01 01:18:20;;;;;;;46.13;14.70;;;;;;;;;;10424797;28;20215;-79
2022/12/01 01:23:21;;;;;;;38.83;15.02;;;;;;;;;;10410487;28;20210;-79
2022/12/01 01:28:22;;;;;;;50.30;16.52;;;;;;;;;;10408050;28;20265;-79
2022/12/01 01:33:23;;;;;;;41.15;15.02;;;;;;;;;;10412224;28;20238;-79
2022/12/01 01:38:24;;;;;;;54.63;17.27;;;;;;;;;;10421329;28;20219;-78
2022/12/01 01:43:45;;;;;;;54.92;18.80;;;;;;;;;;10401217;28;20311;-78
2022/12/01 01:49:07;;;;;;;55.83;17.13;;;;;;;;;;10423840;28;20222;-79
2022/12/01 01:54:14;;;;;;;57.58;17.85;;;;;;;;;;10391582;28;20281;-79
2022/12/01 01:59:18;;;;;;;42.75;17.42;;;;;;;;;;10407555;28;20215;-79
2022/12/01 02:04:20;;;;;;;58.78;16.20;;;;;;;;;;10424957;28;20287;-79
2022/12/01 02:09:21;;;;;;;54.75;17.00;;;;;;;;;;10416798;28;20225;-79
2022/12/01 02:14:33;;;;;;;63.58;17.33;;;;;;;;;;10421180;28;20727;-79
2022/12/01 02:19:40;;;;;;;54.63;15.95;;;;;;;;;;10433842;28;20212;-79
2022/12/01 02:24:56;;;;;;;61.83;17.38;;;;;;;;;;10424895;28;20203;-78
2022/12/01 02:30:04;;;;;;;52.83;17.95;;;;;;;;;;10413534;28;20210;-79
2022/12/01 02:35:05;;;;;;;52.42;17.05;;;;;;;;;;10408032;28;20352;-79
2022/12/01 02:40:14;;;;;;;45.53;15.73;;;;;;;;;;10409171;28;20216;-79
2022/12/01 02:45:23;;;;;;;58.67;18.08;;;;;;;;;;10433412;28;20175;-79
2022/12/01 02:50:25;;;;;;;64.90;17.67;;;;;;;;;;10434959;28;20219;-79
2022/12/01 02:55:26;;;;;;;48.83;16.95;;;;;;;;;;10436324;28;20267;-79
2022/12/01 03:00:29;;;;;;;42.08;14.90;;;;;;;;;;10433434;28;20211;-79
2022/12/01 03:05:49;;;;;;;45.70;15.20;;;;;;;;;;10420700;28;20221;-78
2022/12/01 03:10:54;;;;;;;52.60;16.17;;;;;;;;;;10421241;28;20443;-79
2022/12/01 03:15:58;;;;;;;57.38;14.88;;;;;;;;;;10404384;28;20222;-79
2022/12/01 03:20:59;;;;;;;63.03;17.15;;;;;;;;;;10416486;28;20776;-79
2022/12/01 03:26:05;;;;;;;57.85;17.50;;;;;;;;;;10431817;28;20326;-79
2022/12/01 03:31:08;;;;;;;51.47;16.80;;;;;;;;;;10414334;28;20219;-79
2022/12/01 03:36:13;;;;;;;55.17;15.98;;;;;;;;;;10433144;28;20229;-79
2022/12/01 03:41:17;;;;;;;52.92;16.83;;;;;;;;;;10413697;28;20239;-79
2022/12/01 03:46:24;;;;;;;58.17;17.33;;;;;;;;;;10431903;28;20216;-79
2022/12/01 03:51:42;;;;;;;48.25;15.40;;;;;;;;;;10400821;28;20218;-79
2022/12/01 03:56:45;;;;;;;52.75;16.48;;;;;;;;;;10425797;28;20292;-79
2022/12/01 04:01:47;;;;;;;50.42;15.48;;;;;;;;;;10414036;28;20868;-79
2022/12/01 04:06:50;;;;;;;51.28;17.30;;;;;;;;;;10425740;28;20210;-80
2022/12/01 04:17:10;;;;;;;42.35;14.77;;;;;;;;;;10440823;28;20770;-78
2022/12/01 04:22:12;;;;;;;46.78;14.38;;;;;;;;;;10423316;28;20274;-79
2022/12/01 04:27:13;;;;;;;54.78;17.30;;;;;;;;;;10415576;28;20722;-79
2022/12/01 04:32:14;;;;;;;46.63;15.35;;;;;;;;;;10408124;28;20322;-78
2022/12/01 04:37:15;;;;;;;46.83;15.55;;;;;;;;;;10427031;28;20211;-79
2022/12/01 04:42:16;;;;;;;47.90;14.13;;;;;;;;;;10418842;28;20317;-79
2022/12/01 04:47:17;;;;;;;50.45;16.10;;;;;;;;;;10431413;28;20207;-79
2022/12/01 04:52:19;;;;;;;57.05;15.60;;;;;;;;;;10426305;28;20215;-78
2022/12/01 04:57:20;;;;;;;53.85;16.52;;;;;;;;;;10421592;28;20221;-79
2022/12/01 05:02:21;;;;;;;46.15;15.35;;;;;;;;;;10432420;28;20233;-79
2022/12/01 05:07:22;;;;;;;62.53;17.55;;;;;;;;;;10429971;28;20225;-79
2022/12/01 05:12:23;;;;;;;52.88;16.88;;;;;;;;;;10427363;28;20284;-78
2022/12/01 05:17:24;;;;;;;56.42;16.88;;;;;;;;;;10425157;28;20239;-79
2022/12/01 05:22:25;;;;;;;55.13;15.30;;;;;;;;;;10412576;28;20219;-78
2022/12/01 05:27:26;;;;;;;48.58;16.25;;;;;;;;;;10413621;28;20264;-79
2022/12/01 05:32:27;;;;;;;52.90;15.05;;;;;;;;;;10391642;28;20230;-79
2022/12/01 05:37:33;;;;;;;48.90;16.00;;;;;;;;;;10425005;28;20207;-78
2022/12/01 05:42:34;;;;;;;52.22;15.85;;;;;;;;;;10406072;28;20720;-79
2022/12/01 05:47:35;;;;;;;43.85;16.05;;;;;;;;;;10419077;28;20626;-79
2022/12/01 05:52:36;;;;;;;57.85;17.65;;;;;;;;;;10388135;28;20285;-78
2022/12/01 05:57:37;;;;;;;63.38;16.70;;;;;;;;;;10428609;28;20212;-78
2022/12/01 06:02:39;;;;;;;57.60;15.10;;;;;;;;;;10382334;28;20710;-78
2022/12/01 06:07:40;;;;;;;59.28;16.35;;;;;;;;;;10407281;28;20578;-79
2022/12/01 06:12:41;;;;;;;56.90;14.98;;;;;;;;;;10428051;28;20232;-79
2022/12/01 06:17:42;;;;;;;58.45;16.65;;;;;;;;;;10428665;28;20237;-79
2022/12/01 06:22:43;;;;;;;47.60;15.55;;;;;;;;;;10449669;28;20542;-79
2022/12/01 06:27:44;;;;;;;56.45;15.70;;;;;;;;;;10429799;28;20225;-79
2022/12/01 06:32:45;;;;;;;56.08;17.00;;;;;;;;;;10398216;28;20227;-79
2022/12/01 06:37:47;;;;;;;54.97;16.40;;;;;;;;;;10414857;28;20215;-79
2022/12/01 06:42:48;;;;;;;45.20;14.30;;;;;;;;;;10418391;28;20214;-79
2022/12/01 06:47:52;;;;;;;45.78;13.82;;;;;;;;;;10429999;28;20221;-79
2022/12/01 06:52:54;;;;;;;45.75;13.55;;;;;;;;;;10432240;28;20230;-79
2022/12/01 06:57:55;;;;;;;50.53;15.13;;;;;;;;;;10415957;28;20234;-79
2022/12/01 07:02:56;;;;;;;48.88;15.63;;;;;;;;;;10405180;28;20789;-82
2022/12/01 07:07:57;;;;;;;52.00;15.80;;;;;;;;;;10415842;28;20982;-81
2022/12/01 07:12:58;;;;;;;55.88;15.98;;;;;;;;;;10435390;28;20218;-82
2022/12/01 07:17:59;;;;;;;59.95;15.52;;;;;;;;;;10431588;28;20866;-81
2022/12/01 07:23:01;;;;;;;56.90;16.98;;;;;;;;;;10396327;28;20237;-80
2022/12/01 07:28:02;;;;;;;60.25;15.07;;;;;;;;;;10405661;28;20284;-83
2022/12/01 07:33:03;;;;;;;49.55;16.00;;;;;;;;;;10420799;28;20227;-81
2022/12/01 07:38:04;;;;;;;52.03;16.15;;;;;;;;;;10418034;28;20210;-83
2022/12/01 07:43:05;;;;;;;58.45;17.17;;;;;;;;;;10425457;28;20212;-83
2022/12/01 07:48:06;;;;;;;56.55;16.83;;;;;;;;;;10397716;28;20332;-82
2022/12/01 07:53:07;;;;;;;49.17;16.00;;;;;;;;;;10432162;28;20223;-81
2022/12/01 07:58:08;;;;;;;72.28;15.60;;;;;;;;;;10412202;28;20315;-81
2022/12/01 08:03:09;;;;;;;60.35;15.40;;;;;;;;;;10430331;28;20507;-82
2022/12/01 08:08:10;;;;;;;48.60;15.85;;;;;;;;;;10404325;28;20245;-81
2022/12/01 08:13:11;;;;;;;66.15;17.85;;;;;;;;;;10428335;28;20208;-81
2022/12/01 08:18:12;;;;;;;56.90;15.77;;;;;;;;;;10407113;28;20462;-81
2022/12/01 08:23:13;;;;;;;63.28;17.45;;;;;;;;;;10403016;28;20246;-80
2022/12/01 08:28:14;;;;;;;66.50;16.80;;;;;;;;;;10408066;28;20769;-80
2022/12/01 08:33:16;;;;;;;57.53;15.93;;;;;;;;;;10413164;28;20296;-81
2022/12/01 08:38:17;;;;;;;47.17;15.13;;;;;;;;;;10417933;28;20230;-81
2022/12/01 08:43:18;;;;;;;48.53;15.68;;;;;;;;;;10424286;28;20634;-80
2022/12/01 08:48:19;;;;;;;49.28;16.05;;;;;;;;;;10422192;28;20250;-81
2022/12/01 08:53:20;;;;;;;58.13;15.68;;;;;;;;;;10399238;28;20207;-80
2022/12/01 08:58:21;;;;;;;53.72;16.88;;;;;;;;;;10426260;28;20218;-81
2022/12/01 09:03:22;;;;;;;47.28;16.27;;;;;;;;;;10434359;28;20229;-82
2022/12/01 09:08:30;;;;;;;57.45;16.70;;;;;;;;;;10417402;28;20612;-81
2022/12/01 09:13:32;;;;;;;58.88;17.67;;;;;;;;;;10431396;28;20254;-81
2022/12/01 09:18:34;;;;;;;57.00;16.08;;;;;;;;;;10397274;28;20219;-82
2022/12/01 09:23:35;;;;;;;47.67;16.17;;;;;;;;;;10428125;28;20207;-80
2022/12/01 09:28:36;;;;;;;49.88;15.93;;;;;;;;;;10410411;28;20691;-81
2022/12/01 09:33:38;;;;;;;51.03;15.35;;;;;;;;;;10408772;28;20237;-81
2022/12/01 09:38:39;;;;;;;51.33;15.18;;;;;;;;;;10419593;28;20214;-83
2022/12/01 09:43:44;;;;;;;52.65;14.98;;;;;;;;;;10418215;28;20207;-83
2022/12/01 09:48:47;;;;;;;60.03;15.77;;;;;;;;;;10414483;28;20215;-81
2022/12/01 09:53:49;;;;;;;59.90;17.42;;;;;;;;;;10421338;28;20582;-80
2022/12/01 09:59:01;;;;;;;58.90;16.42;;;;;;;;;;10410353;28;20217;-81
2022/12/01 10:04:07;;;;;;;67.65;16.38;;;;;;;;;;10423844;28;20476;-80
2022/12/01 10:09:23;;;;;;;56.33;16.75;;;;;;;;;;10386152;28;20222;-79
2022/12/01 10:14:24;;;;;;;67.88;17.83;;;;;;;;;;10409802;28;20221;-79
2022/12/01 10:19:33;;;;;;;58.10;17.02;;;;;;;;;;10404312;28;20214;-80
2022/12/01 10:24:35;;;;;;;55.08;16.55;;;;;;;;;;10411495;28;20210;-80
2022/12/01 10:29:52;;;;;;;56.80;16.38;;;;;;;;;;10407718;28;20279;-80
2022/12/01 10:34:53;;;;;;;57.00;16.35;;;;;;;;;;10424294;28;20300;-80
2022/12/01 10:39:55;;;;;;;52.53;15.75;;;;;;;;;;10424392;28;20813;-80
2022/12/01 10:44:59;;;;;;;72.22;16.90;;;;;;;;;;10415999;28;20251;-80
2022/12/01 10:50:02;;;;;;;62.45;16.65;;;;;;;;;;10400521;28;20231;-80
2022/12/01 10:55:05;;;;;;;47.33;15.40;;;;;;;;;;10415793;28;20314;-80
2022/12/01 11:00:07;;;;;;;42.67;14.57;;;;;;;;;;10406177;28;20207;-80
2022/12/01 11:05:20;;;;;;;54.53;17.13;;;;;;;;;;10412095;28;20202;-79
2022/12/01 11:10:26;;;;;;;50.22;15.00;;;;;;;;;;10412961;28;20243;-81
2022/12/01 11:15:30;;;;;;;50.13;15.13;;;;;;;;;;10387285;28;20636;-79
2022/12/01 11:20:33;;;;;;;40.35;13.70;;;;;;;;;;10412097;28;20231;-81
2022/12/01 11:25:34;;;;;;;40.58;13.63;;;;;;;;;;10430344;28;20801;-80
2022/12/01 11:30:35;;;;;;;50.42;15.50;;;;;;;;;;10408010;28;20223;-81
2022/12/01 11:35:37;;;;;;;40.47;12.70;;;;;;;;;;10386208;28;20279;-80
2022/12/01 11:40:46;;;;;;;37.78;12.85;;;;;;;;;;10388964;28;20219;-80
2022/12/01 11:45:47;;;;;;;40.45;14.98;;;;;;;;;;10389679;28;20215;-80
2022/12/01 11:51:08;;;;;;;45.55;12.75;;;;;;;;;;10385273;28;20740;-80
2022/12/01 11:56:09;;;;;;;47.88;16.27;;;;;;;;;;10405188;28;20215;-79
2022/12/01 12:01:29;;;;;;;57.10;18.30;;;;;;;;;;10383134;28;20649;-80
2022/12/01 12:06:40;;;;;;;48.72;13.95;;;;;;;;;;10382713;28;20289;-79
2022/12/01 12:11:48;;;;;;;45.13;14.93;;;;;;;;;;10386769;28;20223;-80
2022/12/01 12:17:04;;;;;;;40.38;13.77;;;;;;;;;;10386081;28;20330;-80
2022/12/01 12:22:10;;;;;;;37.92;12.35;;;;;;;;;;10386458;28;20320;-80
2022/12/01 12:27:13;;;;;;;44.72;13.02;;;;;;;;;;10389934;28;20314;-81
2022/12/01 12:32:21;;;;;;;40.92;13.48;;;;;;;;;;10410630;28;20631;-80
2022/12/01 12:37:28;;;;;;;29.83;11.93;;;;;;;;;;10413178;28;20549;-81
2022/12/01 12:42:32;;;;;;;41.95;13.60;;;;;;;;;;10396862;28;20853;-81
2022/12/01 12:47:42;;;;;;;42.97;15.05;;;;;;;;;;10408367;28;20360;-80
2022/12/01 12:52:47;;;;;;;36.88;13.98;;;;;;;;;;10406892;28;20223;-81
2022/12/01 12:58:06;;;;;;;43.53;14.20;;;;;;;;;;10405280;28;20723;-80
2022/12/01 13:03:27;;;;;;;57.35;14.63;;;;;;;;;;10389397;28;20695;-81
2022/12/01 13:08:34;;;;;;;34.90;12.52;;;;;;;;;;10404163;28;20226;-80
2022/12/01 13:13:46;;;;;;;57.83;14.63;;;;;;;;;;10396851;28;20265;-80
2022/12/01 13:18:50;;;;;;;49.55;16.02;;;;;;;;;;10394534;28;20302;-80
2022/12/01 13:23:51;;;;;;;49.60;16.05;;;;;;;;;;10422722;28;20226;-80
2022/12/01 13:28:54;;;;;;;52.38;14.60;;;;;;;;;;10407724;28;20257;-80
2022/12/01 13:33:57;;;;;;;68.55;16.75;;;;;;;;;;10421641;28;20270;-80
2022/12/01 13:39:01;;;;;;;46.25;16.83;;;;;;;;;;10394739;28;20219;-80
2022/12/01 13:44:07;;;;;;;52.42;16.38;;;;;;;;;;10401187;28;20748;-79
2022/12/01 13:49:28;;;;;;;44.70;15.77;;;;;;;;;;10417651;28;20227;-79
2022/12/01 13:54:30;;;;;;;41.00;14.05;;;;;;;;;;10419189;28;20598;-81
2022/12/01 13:59:39;;;;;;;45.83;15.65;;;;;;;;;;10417120;28;20219;-79
2022/12/01 14:04:40;;;;;;;56.08;15.32;;;;;;;;;;10418502;28;20601;-79
2022/12/01 14:09:42;;;;;;;51.05;14.02;;;;;;;;;;10414032;28;20218;-79
2022/12/01 14:14:52;;;;;;;50.70;15.25;;;;;;;;;;10419389;28;20210;-79
2022/12/01 14:19:53;;;;;;;47.88;14.70;;;;;;;;;;10400515;28;20304;-79
2022/12/01 14:24:55;;;;;;;53.42;15.60;;;;;;;;;;10417813;28;20216;-80
2022/12/01 14:29:56;;;;;;;53.83;15.82;;;;;;;;;;10417370;28;20333;-80
2022/12/01 14:34:59;;;;;;;59.75;16.67;;;;;;;;;;10412890;28;20237;-79
2022/12/01 14:40:26;;;;;;;48.50;15.95;;;;;;;;;;10428443;28;20223;-80
2022/12/01 14:45:33;;;;;;;43.60;16.02;;;;;;;;;;10408282;28;20711;-79
2022/12/01 14:50:41;;;;;;;51.80;16.48;;;;;;;;;;10406130;28;20253;-80
2022/12/01 14:55:45;;;;;;;61.17;17.35;;;;;;;;;;10448471;28;20706;-79
2022/12/01 15:00:55;;;;;;;46.85;16.38;;;;;;;;;;10408810;28;20250;-80
2022/12/01 15:05:56;;;;;;;50.03;16.08;;;;;;;;;;10416494;28;20806;-81
2022/12/01 15:10:59;;;;;;;49.33;16.10;;;;;;;;;;10412832;28;20222;-81
2022/12/01 15:16:01;;;;;;;57.60;16.10;;;;;;;;;;10420496;28;20586;-82
2022/12/01 15:21:15;;;;;;;48.90;16.95;;;;;;;;;;10429577;28;20230;-82
2022/12/01 15:26:20;;;;;;;40.58;15.35;;;;;;;;;;10416135;28;20269;-81
2022/12/01 15:31:22;;;;;;;50.83;16.20;;;;;;;;;;10416191;28;20219;-79
2022/12/01 15:36:23;;;;;;;46.90;15.30;;;;;;;;;;10424682;28;20226;-78
2022/12/01 15:41:24;;;;;;;56.00;17.70;;;;;;;;;;10434023;28;20251;-79
2022/12/01 15:46:27;;;;;;;49.40;16.67;;;;;;;;;;10399543;28;20246;-79
2022/12/01 15:51:28;;;;;;;49.17;16.52;;;;;;;;;;10411464;28;20216;-79
2022/12/01 15:56:34;;;;;;;46.72;15.65;;;;;;;;;;10427200;28;20696;-79
2022/12/01 16:01:36;;;;;;;50.08;16.55;;;;;;;;;;10430590;28;20497;-79
2022/12/01 16:06:38;;;;;;;38.08;16.65;;;;;;;;;;10411940;28;20569;-79
2022/12/01 16:11:39;;;;;;;42.72;15.73;;;;;;;;;;10395928;28;20227;-79
2022/12/01 16:16:44;;;;;;;49.17;15.80;;;;;;;;;;10430677;28;20641;-79
2022/12/01 16:22:13;;;;;;;49.17;15.23;;;;;;;;;;10403850;28;20215;-79
2022/12/01 16:27:27;;;;;;;45.50;16.40;;;;;;;;;;10420567;28;20215;-78
2022/12/01 16:32:42;;;;;;;42.15;16.35;;;;;;;;;;10415891;28;20249;-79
2022/12/01 16:37:43;;;;;;;54.85;17.17;;;;;;;;;;10388992;28;20218;-78
2022/12/01 16:42:45;;;;;;;49.63;16.33;;;;;;;;;;10408962;28;20733;-79
2022/12/01 16:47:47;;;;;;;53.85;18.30;;;;;;;;;;10406776;28;20229;-79
2022/12/01 16:52:48;;;;;;;54.05;17.63;;;;;;;;;;10409701;28;20210;-78
2022/12/01 16:57:49;;;;;;;40.22;14.90;;;;;;;;;;10422530;28;20726;-80
2022/12/01 17:02:51;;;;;;;48.42;18.83;;;;;;;;;;10422162;28;20529;-80
2022/12/01 17:07:52;;;;;;;56.30;16.88;;;;;;;;;;10420137;28;20533;-78
2022/12/01 17:12:54;;;;;;;55.80;17.73;;;;;;;;;;10422343;28;20257;-79
2022/12/01 17:17:55;;;;;;;64.00;19.75;;;;;;;;;;10395395;28;20225;-81
2022/12/01 17:22:56;;;;;;;66.20;19.95;;;;;;;;;;10424400;28;20219;-81
2022/12/01 17:27:57;;;;;;;62.35;19.30;;;;;;;;;;10416792;28;20214;-81
2022/12/01 17:32:58;;;;;;;59.05;20.05;;;;;;;;;;10411464;28;20711;-83
2022/12/01 17:37:59;;;;;;;56.17;17.92;;;;;;;;;;10398141;28;20226;-80
2022/12/01 17:43:00;;;;;;;78.82;20.52;;;;;;;;;;10398554;28;20634;-81
2022/12/01 17:48:01;;;;;;;67.28;20.10;;;;;;;;;;10407977;28;20250;-81
2022/12/01 17:53:03;;;;;;;52.58;18.02;;;;;;;;;;10388992;28;20218;-81
2022/12/01 17:58:04;;;;;;;57.35;19.50;;;;;;;;;;10415500;28;20288;-82
2022/12/01 18:03:06;;;;;;;60.65;18.77;;;;;;;;;;10422206;28;20586;-81
2022/12/01 18:08:07;;;;;;;61.90;18.10;;;;;;;;;;10407420;28;20238;-81
2022/12/01 18:13:08;;;;;;;61.70;18.13;;;;;;;;;;10434015;28;20702;-82
2022/12/01 18:18:09;;;;;;;78.45;20.92;;;;;;;;;;10415251;28;20772;-81
2022/12/01 18:23:11;;;;;;;67.78;21.45;;;;;;;;;;10414574;28;20222;-82
2022/12/01 18:28:13;;;;;;;78.72;21.50;;;;;;;;;;10414520;28;20321;-83
2022/12/01 18:33:14;;;;;;;75.18;22.08;;;;;;;;;;10432163;28;20227;-84
2022/12/01 18:38:15;;;;;;;77.55;23.02;;;;;;;;;;10447331;28;20218;-86
2022/12/01 18:43:16;;;;;;;83.82;21.95;;;;;;;;;;10411041;28;20294;-84
2022/12/01 18:48:17;;;;;;;77.82;21.65;;;;;;;;;;10394852;28;20228;-83
2022/12/01 18:53:18;;;;;;;77.63;21.65;;;;;;;;;;10413224;28;20393;-83
2022/12/01 18:58:19;;;;;;;67.28;20.50;;;;;;;;;;10434938;28;20211;-84
2022/12/01 19:03:21;;;;;;;69.22;21.63;;;;;;;;;;10430975;28;20808;-82
2022/12/01 19:08:22;;;;;;;60.13;20.27;;;;;;;;;;10416926;28;20579;-81
2022/12/01 19:13:23;;;;;;;75.60;21.30;;;;;;;;;;10422040;28;20210;-82
2022/12/01 19:18:24;;;;;;;64.28;21.40;;;;;;;;;;10398911;28;20210;-83
2022/12/01 19:23:26;;;;;;;82.47;21.73;;;;;;;;;;10415424;28;21102;-82
2022/12/01 19:28:28;;;;;;;79.22;21.90;;;;;;;;;;10398776;28;20235;-81
2022/12/01 19:33:29;;;;;;;63.42;19.85;;;;;;;;;;10415206;28;20234;-83
2022/12/01 19:38:30;;;;;;;74.93;22.02;;;;;;;;;;10405509;28;20685;-82
2022/12/01 19:43:32;;;;;;;58.70;19.88;;;;;;;;;;10421158;28;20599;-81
2022/12/01 19:48:34;;;;;;;70.82;20.10;;;;;;;;;;10414282;28;20291;-82
2022/12/01 19:53:35;;;;;;;60.97;21.35;;;;;;;;;;10414218;28;20225;-81
2022/12/01 19:58:36;;;;;;;65.88;19.85;;;;;;;;;;10410220;28;20371;-82
2022/12/01 20:03:39;;;;;;;68.85;19.60;;;;;;;;;;10398569;28;20320;-82
2022/12/01 20:08:40;;;;;;;72.03;20.27;;;;;;;;;;10432682;28;20685;-81
2022/12/01 20:13:42;;;;;;;61.78;17.45;;;;;;;;;;10405586;28;20727;-82
2022/12/01 20:18:44;;;;;;;54.25;18.55;;;;;;;;;;10403560;28;20249;-82
2022/12/01 20:23:47;;;;;;;54.67;18.70;;;;;;;;;;10404163;28;20221;-82
2022/12/01 20:28:49;;;;;;;61.17;19.63;;;;;;;;;;10386157;28;20215;-82
2022/12/01 20:33:51;;;;;;;46.03;16.98;;;;;;;;;;10401032;28;20299;-81
2022/12/01 20:38:52;;;;;;;58.83;18.60;;;;;;;;;;10397906;28;20222;-82
2022/12/01 20:43:53;;;;;;;69.95;17.88;;;;;;;;;;10405215;28;20203;-83
2022/12/01 20:48:54;;;;;;;51.40;17.33;;;;;;;;;;10395057;28;20520;-82
2022/12/01 20:53:55;;;;;;;59.10;17.45;;;;;;;;;;10380555;28;20221;-82
2022/12/01 20:58:57;;;;;;;54.85;16.50;;;;;;;;;;10427177;28;20227;-82
2022/12/01 21:03:58;;;;;;;52.03;18.85;;;;;;;;;;10421497;28;20682;-82
2022/12/01 21:09:00;;;;;;;52.60;17.13;;;;;;;;;;10405132;28;20226;-82
2022/12/01 21:14:02;;;;;;;49.63;17.02;;;;;;;;;;10400219;28;20210;-82
2022/12/01 21:19:10;;;;;;;46.55;17.05;;;;;;;;;;10411421;28;20671;-82
2022/12/01 21:24:13;;;;;;;45.67;17.23;;;;;;;;;;10421350;28;20299;-84
2022/12/01 21:29:19;;;;;;;54.53;16.25;;;;;;;;;;10396282;28;20242;-84
2022/12/01 21:34:24;;;;;;;49.08;16.80;;;;;;;;;;10377827;28;20318;-81
2022/12/01 21:39:25;;;;;;;56.10;17.75;;;;;;;;;;10396063;28;20233;-83
2022/12/01 21:44:31;;;;;;;44.47;15.63;;;;;;;;;;10399207;28;20284;-82
2022/12/01 21:49:38;;;;;;;57.97;16.42;;;;;;;;;;10383233;28;20942;-82
2022/12/01 21:54:39;;;;;;;59.67;18.95;;;;;;;;;;10395578;28;20218;-82
2022/12/01 21:59:40;;;;;;;50.70;17.35;;;;;;;;;;10417201;28;20218;-81
2022/12/01 22:04:42;;;;;;;44.90;15.97;;;;;;;;;;10418436;28;20207;-83
2022/12/01 22:09:43;;;;;;;52.17;15.55;;;;;;;;;;10417301;28;20241;-82
2022/12/01 22:14:44;;;;;;;53.22;15.98;;;;;;;;;;10402488;28;20210;-84
2022/12/01 22:19:48;;;;;;;53.65;15.98;;;;;;;;;;10416304;28;20219;-83
2022/12/01 22:24:50;;;;;;;44.33;15.65;;;;;;;;;;10455306;28;20214;-85
2022/12/01 22:29:52;;;;;;;38.58;14.00;;;;;;;;;;10451799;28;20242;-84
2022/12/01 22:34:55;;;;;;;41.92;15.13;;;;;;;;;;10384529;28;20235;-84
2022/12/01 22:39:56;;;;;;;43.95;14.70;;;;;;;;;;10381207;28;20234;-84
2022/12/01 22:45:14;;;;;;;42.00;15.20;;;;;;;;;;10391999;28;20208;-83
2022/12/01 22:50:29;;;;;;;34.78;15.63;;;;;;;;;;10382848;28;20863;-83
2022/12/01 22:55:30;;;;;;;40.03;14.77;;;;;;;;;;10379382;28;20211;-84
2022/12/01 23:00:32;;;;;;;47.63;13.85;;;;;;;;;;10382650;28;20223;-82
2022/12/01 23:05:33;;;;;;;39.63;14.55;;;;;;;;;;10385015;28;20716;-83
2022/12/01 23:10:34;;;;;;;32.58;13.82;;;;;;;;;;10390947;28;20422;-82
2022/12/01 23:15:37;;;;;;;45.42;16.33;;;;;;;;;;10385547;28;20212;-83
2022/12/01 23:20:39;;;;;;;36.67;14.27;;;;;;;;;;10385610;28;20277;-83
2022/12/01 23:25:41;;;;;;;48.53;15.65;;;;;;;;;;10382864;28;20220;-82
2022/12/01 23:30:43;;;;;;;41.00;14.45;;;;;;;;;;10384028;28;20235;-83
2022/12/01 23:35:59;;;;;;;40.28;13.50;;;;;;;;;;10381679;28;20229;-83
2022/12/01 23:41:01;;;;;;;34.40;13.48;;;;;;;;;;10398732;28;20234;-83
2022/12/01 23:46:08;;;;;;;42.47;15.07;;;;;;;;;;10365100;28;20223;-82
2022/12/01 23:51:18;;;;;;;48.42;14.20;;;;;;;;;;10387375;28;20991;-83
2022/12/01 23:56:20;;;;;;;41.53;15.02;;;;;;;;;;10408617;28;20216;-84
